Time;durP1;ratioP1;P1;durP2;ratioP2;P2;SDS_P1;SDS_P2;PMS_P1;PMS_P2;Temp;Humidity;BMP_temperature;BMP_pressure;BME280_temperature;BME280_humidity;BME280_pressure;Samples;Min_cycle;Max_cycle;Signal;HPM_P1;HPM_P2
2021/06/19 00:00:39;;;;;;;2.60;2.40;;;22.80;75.90;;;;;;5055209;28;20029;-64
2021/06/19 00:03:05;;;;;;;6.65;2.95;;;22.70;75.90;;;;;;5051554;28;20113;-64
2021/06/19 00:05:31;;;;;;;4.82;3.47;;;22.70;76.20;;;;;;5051487;28;20025;-64
2021/06/19 00:07:58;;;;;;;3.20;2.85;;;22.70;76.30;;;;;;5054024;28;20024;-64
2021/06/19 00:10:23;;;;;;;4.35;2.88;;;22.70;76.40;;;;;;5051050;28;20473;-64
2021/06/19 00:12:52;;;;;;;3.35;2.42;;;22.70;76.70;;;;;;5053743;28;20107;-64
2021/06/19 00:15:20;;;;;;;5.30;3.00;;;22.60;76.70;;;;;;5053474;28;20108;-64
2021/06/19 00:17:47;;;;;;;4.15;3.10;;;22.60;77.00;;;;;;5055293;28;20074;-64
2021/06/19 00:20:16;;;;;;;3.95;3.08;;;22.60;77.00;;;;;;5053231;28;20044;-64
2021/06/19 00:22:43;;;;;;;4.57;2.78;;;22.60;76.80;;;;;;5048638;28;20060;-64
2021/06/19 00:25:10;;;;;;;3.42;2.67;;;22.60;76.90;;;;;;5053196;28;20029;-64
2021/06/19 00:27:36;;;;;;;4.70;2.90;;;22.60;76.80;;;;;;5054670;28;20384;-64
2021/06/19 00:30:05;;;;;;;2.70;2.50;;;22.50;77.00;;;;;;5049012;28;20461;-64
2021/06/19 00:32:30;;;;;;;3.65;3.00;;;22.50;77.20;;;;;;5054922;28;20029;-64
2021/06/19 00:34:56;;;;;;;5.88;3.22;;;22.50;77.40;;;;;;5057785;28;20357;-64
2021/06/19 00:37:22;;;;;;;3.25;2.58;;;22.50;77.20;;;;;;5053189;28;20032;-64
2021/06/19 00:39:47;;;;;;;3.20;2.70;;;22.50;76.80;;;;;;5052164;28;20051;-64
2021/06/19 00:42:21;;;;;;;3.38;2.92;;;22.50;76.60;;;;;;5056229;28;20116;-64
2021/06/19 00:44:47;;;;;;;4.65;2.70;;;22.50;76.50;;;;;;5052323;28;20031;-64
2021/06/19 00:47:13;;;;;;;3.15;2.72;;;22.50;76.80;;;;;;5052901;28;20607;-64
2021/06/19 00:49:39;;;;;;;3.63;2.80;;;22.40;76.70;;;;;;5043398;28;20021;-64
2021/06/19 00:52:05;;;;;;;3.85;2.92;;;22.40;76.60;;;;;;5054305;28;20024;-64
2021/06/19 00:54:31;;;;;;;3.17;2.63;;;22.50;77.00;;;;;;5049703;28;20379;-64
2021/06/19 00:56:57;;;;;;;3.03;2.67;;;22.50;76.90;;;;;;5048651;28;20025;-64
2021/06/19 00:59:24;;;;;;;3.22;2.67;;;22.40;76.70;;;;;;5053465;28;20037;-64
2021/06/19 01:01:49;;;;;;;3.90;3.13;;;22.40;76.90;;;;;;5054059;28;20017;-64
2021/06/19 01:04:15;;;;;;;3.85;2.70;;;22.50;77.20;;;;;;5052625;28;20029;-64
2021/06/19 01:06:41;;;;;;;5.95;3.60;;;22.40;77.30;;;;;;5054035;28;20071;-64
2021/06/19 01:09:09;;;;;;;3.08;2.78;;;22.50;77.20;;;;;;5052781;28;20158;-64
2021/06/19 01:11:39;;;;;;;3.63;2.53;;;22.40;77.10;;;;;;5050151;28;20053;-64
2021/06/19 01:14:07;;;;;;;2.90;2.60;;;22.40;77.10;;;;;;5039417;28;20022;-64
2021/06/19 01:16:34;;;;;;;3.05;2.85;;;22.40;77.20;;;;;;5055380;28;20048;-64
2021/06/19 01:19:00;;;;;;;7.65;2.90;;;22.40;77.50;;;;;;5051418;28;20025;-64
2021/06/19 01:21:29;;;;;;;3.47;2.55;;;22.40;77.30;;;;;;5051432;28;20045;-64
2021/06/19 01:23:56;;;;;;;3.47;2.60;;;22.40;77.70;;;;;;5046957;28;20043;-64
2021/06/19 01:26:27;;;;;;;3.70;2.75;;;22.40;77.20;;;;;;5053576;28;20028;-64
2021/06/19 01:28:54;;;;;;;4.55;2.90;;;22.40;77.20;;;;;;5051266;28;20059;-64
2021/06/19 01:31:21;;;;;;;4.00;2.92;;;22.40;77.20;;;;;;5051119;28;20525;-64
2021/06/19 01:33:48;;;;;;;3.08;2.78;;;22.40;77.30;;;;;;5044557;28;20029;-64
2021/06/19 01:36:16;;;;;;;3.90;2.70;;;22.40;77.30;;;;;;5053727;28;20029;-64
2021/06/19 01:38:49;;;;;;;2.90;2.60;;;22.30;77.30;;;;;;5051535;28;20158;-64
2021/06/19 01:41:20;;;;;;;3.58;2.47;;;22.30;77.30;;;;;;5055487;28;20557;-64
2021/06/19 01:43:47;;;;;;;4.55;2.70;;;22.30;77.50;;;;;;5052687;28;20372;-64
2021/06/19 01:46:14;;;;;;;5.72;2.72;;;22.30;77.70;;;;;;5044725;28;20449;-64
2021/06/19 01:48:40;;;;;;;5.47;3.30;;;22.30;78.00;;;;;;5046502;28;20025;-64
2021/06/19 01:51:10;;;;;;;4.88;2.90;;;22.30;78.30;;;;;;5052889;28;20353;-64
2021/06/19 01:53:43;;;;;;;3.20;2.90;;;22.30;78.40;;;;;;5048823;28;20029;-64
2021/06/19 01:56:10;;;;;;;4.40;2.90;;;22.20;78.20;;;;;;5056668;28;20782;-64
2021/06/19 01:58:36;;;;;;;3.25;2.80;;;22.30;78.40;;;;;;5052250;28;20029;-64
2021/06/19 02:01:07;;;;;;;3.33;2.67;;;22.30;78.50;;;;;;5050990;28;20052;-64
2021/06/19 02:03:32;;;;;;;4.07;2.53;;;22.20;78.60;;;;;;5041264;28;20060;-64
2021/06/19 02:05:58;;;;;;;3.00;2.70;;;22.20;78.90;;;;;;5051715;28;20473;-64
2021/06/19 02:08:30;;;;;;;4.10;2.70;;;22.30;79.00;;;;;;5060061;28;20078;-66
2021/06/19 02:11:01;;;;;;;6.13;2.97;;;22.20;78.80;;;;;;5071576;28;20028;-65
2021/06/19 02:13:27;;;;;;;2.78;2.55;;;22.30;78.90;;;;;;5052226;28;20040;-63
2021/06/19 02:15:53;;;;;;;3.30;3.00;;;22.20;78.80;;;;;;5052991;28;20096;-63
2021/06/19 02:18:19;;;;;;;3.38;3.08;;;22.20;78.70;;;;;;5049482;28;20075;-63
2021/06/19 02:20:48;;;;;;;5.90;2.80;;;22.20;78.90;;;;;;5045236;28;20048;-63
2021/06/19 02:23:14;;;;;;;3.70;2.95;;;22.30;78.90;;;;;;5052778;28;20048;-63
2021/06/19 02:25:39;;;;;;;4.65;2.83;;;22.20;78.80;;;;;;5052770;28;20025;-63
2021/06/19 02:28:08;;;;;;;4.28;2.72;;;22.20;78.90;;;;;;5052199;28;20048;-63
2021/06/19 02:30:39;;;;;;;3.55;2.90;;;22.20;78.90;;;;;;5055883;28;20100;-63
2021/06/19 02:33:06;;;;;;;6.47;3.33;;;22.20;78.90;;;;;;5052367;28;20025;-63
2021/06/19 02:35:34;;;;;;;5.30;2.97;;;22.20;78.70;;;;;;5048793;28;20027;-63
2021/06/19 02:38:00;;;;;;;3.03;2.72;;;22.30;79.10;;;;;;5049216;28;20021;-63
2021/06/19 02:40:26;;;;;;;5.25;3.00;;;22.30;78.80;;;;;;5053536;28;20063;-63
2021/06/19 02:42:53;;;;;;;4.05;2.80;;;22.30;79.20;;;;;;5050838;28;20484;-63
2021/06/19 02:45:19;;;;;;;4.70;2.88;;;22.30;79.10;;;;;;5054756;28;20021;-63
2021/06/19 02:47:46;;;;;;;5.63;2.88;;;22.30;78.70;;;;;;5055981;28;20452;-63
2021/06/19 02:50:14;;;;;;;3.60;3.15;;;22.40;78.90;;;;;;5053846;28;20049;-63
2021/06/19 02:52:42;;;;;;;3.20;2.90;;;22.40;78.90;;;;;;5062368;28;20033;-66
2021/06/19 02:55:15;;;;;;;4.38;2.80;;;22.40;78.70;;;;;;5052167;28;20089;-63
2021/06/19 02:57:42;;;;;;;3.97;2.70;;;22.50;78.70;;;;;;5056561;28;20114;-64
2021/06/19 03:00:13;;;;;;;3.97;2.70;;;22.50;78.20;;;;;;5056022;28;20036;-64
2021/06/19 03:02:40;;;;;;;3.10;2.70;;;22.60;78.10;;;;;;5056844;28;20021;-64
2021/06/19 03:05:08;;;;;;;3.03;2.63;;;22.60;77.60;;;;;;5055569;28;20021;-64
2021/06/19 03:07:33;;;;;;;6.10;2.72;;;22.60;77.70;;;;;;5056098;28;20100;-64
2021/06/19 03:09:59;;;;;;;4.00;2.85;;;22.70;77.50;;;;;;5053984;28;20167;-64
2021/06/19 03:12:27;;;;;;;4.40;2.88;;;22.70;77.00;;;;;;5048871;28;20054;-64
2021/06/19 03:14:53;;;;;;;3.25;2.65;;;22.70;76.80;;;;;;5053934;28;20033;-64
2021/06/19 03:17:19;;;;;;;4.57;2.80;;;22.70;76.70;;;;;;5053571;28;20150;-64
2021/06/19 03:19:45;;;;;;;3.42;2.60;;;22.70;76.60;;;;;;5048218;28;20108;-64
2021/06/19 03:22:10;;;;;;;4.00;2.70;;;22.70;76.30;;;;;;5058093;28;20485;-64
2021/06/19 03:24:38;;;;;;;4.43;2.63;;;22.70;76.30;;;;;;5047669;28;20099;-64
2021/06/19 03:27:04;;;;;;;4.82;2.80;;;22.60;76.20;;;;;;5054962;28;20029;-64
2021/06/19 03:29:30;;;;;;;4.70;2.88;;;22.60;76.20;;;;;;5050582;28;20753;-64
2021/06/19 03:31:56;;;;;;;4.10;2.88;;;22.50;76.70;;;;;;5055224;28;20040;-64
2021/06/19 03:34:22;;;;;;;3.45;2.60;;;22.50;76.70;;;;;;5048716;28;20029;-64
2021/06/19 03:36:48;;;;;;;3.78;2.67;;;22.50;76.70;;;;;;5057683;28;20033;-64
2021/06/19 03:39:15;;;;;;;5.30;3.40;;;22.50;76.90;;;;;;5053790;28;20133;-64
2021/06/19 03:41:42;;;;;;;3.17;2.75;;;22.50;77.30;;;;;;5055107;28;20487;-64
2021/06/19 03:44:11;;;;;;;4.25;2.78;;;22.60;77.30;;;;;;5053584;28;20079;-64
2021/06/19 03:46:40;;;;;;;3.03;2.70;;;22.60;77.30;;;;;;5049064;28;20360;-64
2021/06/19 03:49:06;;;;;;;4.35;2.70;;;22.70;77.00;;;;;;5057175;28;20017;-64
2021/06/19 03:51:32;;;;;;;3.10;2.67;;;22.80;77.30;;;;;;5062886;28;20461;-64
2021/06/19 03:53:58;;;;;;;3.22;2.75;;;23.10;77.60;;;;;;5053445;28;20025;-64
2021/06/19 03:56:24;;;;;;;4.80;2.78;;;23.70;76.80;;;;;;5052191;28;20017;-64
2021/06/19 03:58:49;;;;;;;2.97;2.70;;;24.20;75.20;;;;;;5055310;28;20089;-64
2021/06/19 04:01:18;;;;;;;3.83;2.88;;;24.70;73.60;;;;;;5040064;28;20498;-64
2021/06/19 04:03:44;;;;;;;3.20;2.50;;;24.90;72.30;;;;;;5043338;28;20083;-64
2021/06/19 04:06:09;;;;;;;5.07;2.70;;;24.90;71.60;;;;;;5060216;28;20017;-64
2021/06/19 04:08:35;;;;;;;6.47;3.00;;;25.00;71.40;;;;;;5048860;28;20518;-64
2021/06/19 04:11:01;;;;;;;3.60;2.88;;;25.10;71.30;;;;;;5051547;28;20027;-64
2021/06/19 04:13:26;;;;;;;3.60;2.63;;;25.40;71.00;;;;;;5053217;28;20031;-64
2021/06/19 04:15:52;;;;;;;3.08;2.63;;;25.80;70.80;;;;;;5054009;28;20033;-64
2021/06/19 04:18:18;;;;;;;3.40;2.78;;;26.40;70.30;;;;;;5051259;28;20031;-64
2021/06/19 04:20:43;;;;;;;3.83;2.83;;;27.40;69.40;;;;;;5050785;28;20052;-65
2021/06/19 04:23:10;;;;;;;3.50;2.67;;;28.30;66.10;;;;;;5054557;28;20151;-64
2021/06/19 04:25:36;;;;;;;5.15;2.88;;;28.80;64.10;;;;;;5053932;28;20485;-65
2021/06/19 04:28:02;;;;;;;4.35;2.70;;;28.90;61.40;;;;;;5054097;28;20079;-65
2021/06/19 04:30:28;;;;;;;4.18;2.88;;;28.70;60.90;;;;;;5063662;28;20078;-65
2021/06/19 04:32:55;;;;;;;4.43;2.75;;;28.70;61.90;;;;;;5057494;28;20029;-64
2021/06/19 04:35:23;;;;;;;5.30;2.80;;;29.10;61.50;;;;;;5044995;28;20036;-65
2021/06/19 04:37:49;;;;;;;5.72;2.65;;;29.50;60.60;;;;;;5041267;28;20380;-64
2021/06/19 04:43:05;;;;;;;3.08;2.72;;;29.70;59.00;;;;;;5054527;28;20551;-64
2021/06/19 04:45:31;;;;;;;3.67;2.60;;;29.90;59.20;;;;;;5039633;28;20028;-64
2021/06/19 04:47:59;;;;;;;3.65;2.80;;;30.40;58.70;;;;;;5052510;28;20029;-64
2021/06/19 04:50:24;;;;;;;3.15;2.72;;;30.90;58.20;;;;;;5051047;28;20027;-64
2021/06/19 04:52:53;;;;;;;3.35;2.25;;;31.40;57.60;;;;;;5047789;28;20033;-64
2021/06/19 04:55:19;;;;;;;2.60;2.40;;;31.90;56.40;;;;;;5054264;28;20029;-64
2021/06/19 04:57:52;;;;;;;3.42;2.90;;;32.10;55.20;;;;;;5053702;28;20025;-64
2021/06/19 05:00:18;;;;;;;4.38;2.75;;;32.30;54.80;;;;;;5052373;28;20029;-64
2021/06/19 05:02:44;;;;;;;3.95;2.63;;;32.50;54.50;;;;;;5051801;28;20024;-64
2021/06/19 05:05:09;;;;;;;3.70;2.40;;;32.80;54.10;;;;;;5053482;28;20028;-64
2021/06/19 05:07:36;;;;;;;3.53;2.75;;;33.00;53.60;;;;;;5045350;28;20032;-64
2021/06/19 05:10:06;;;;;;;3.20;2.88;;;33.20;53.10;;;;;;5046376;28;20108;-64
2021/06/19 05:12:33;;;;;;;3.10;2.50;;;33.30;52.00;;;;;;5040386;28;20040;-64
2021/06/19 05:15:00;;;;;;;4.43;2.65;;;33.30;52.10;;;;;;5047540;28;20385;-64
2021/06/19 05:17:29;;;;;;;3.95;2.88;;;33.30;51.70;;;;;;5050288;28;20025;-64
2021/06/19 05:19:56;;;;;;;2.83;2.55;;;33.40;51.60;;;;;;5052940;28;20036;-65
2021/06/19 05:22:22;;;;;;;3.47;2.75;;;33.30;51.10;;;;;;5057746;28;20416;-65
2021/06/19 05:24:48;;;;;;;3.67;2.75;;;33.10;50.80;;;;;;5040948;28;20021;-64
2021/06/19 05:27:14;;;;;;;4.95;3.17;;;32.80;51.60;;;;;;5050931;28;20021;-64
2021/06/19 05:29:39;;;;;;;4.40;2.90;;;32.40;52.50;;;;;;5052465;28;20041;-64
2021/06/19 05:32:06;;;;;;;4.15;2.85;;;31.90;52.70;;;;;;5052241;28;20028;-65
2021/06/19 05:34:32;;;;;;;3.30;3.00;;;31.30;53.60;;;;;;5051941;28;20024;-64
2021/06/19 05:36:57;;;;;;;4.68;2.80;;;30.60;54.10;;;;;;5062311;28;20072;-64
2021/06/19 05:39:23;;;;;;;6.78;3.20;;;30.00;55.40;;;;;;5049983;28;20035;-65
2021/06/19 05:41:49;;;;;;;3.53;3.20;;;29.40;56.80;;;;;;5051753;28;20534;-65
2021/06/19 05:44:15;;;;;;;5.00;3.55;;;29.10;57.70;;;;;;5051261;28;20067;-65
2021/06/19 05:46:41;;;;;;;4.05;3.00;;;28.80;58.50;;;;;;5052659;28;20035;-65
2021/06/19 05:49:07;;;;;;;5.82;3.58;;;28.50;58.90;;;;;;5048953;28;20486;-65
2021/06/19 05:51:33;;;;;;;6.45;3.17;;;28.30;59.60;;;;;;5066914;28;20074;-65
2021/06/19 05:53:59;;;;;;;4.20;3.08;;;28.00;60.80;;;;;;5048933;28;20021;-64
2021/06/19 05:56:25;;;;;;;4.68;3.50;;;27.70;60.80;;;;;;5035537;28;20459;-64
2021/06/19 05:58:51;;;;;;;3.60;3.13;;;27.60;61.30;;;;;;5055023;28;20104;-64
2021/06/19 06:01:16;;;;;;;3.72;3.33;;;27.50;61.90;;;;;;5046860;28;20044;-64
2021/06/19 06:03:42;;;;;;;4.35;3.35;;;27.40;62.30;;;;;;5051142;28;20060;-64
2021/06/19 06:06:08;;;;;;;5.03;3.33;;;27.30;62.70;;;;;;5053554;28;20024;-64
2021/06/19 06:08:34;;;;;;;6.57;3.85;;;27.30;63.50;;;;;;5046886;28;20018;-64
2021/06/19 06:11:00;;;;;;;4.30;3.33;;;27.20;63.20;;;;;;5049556;28;20031;-65
2021/06/19 06:13:25;;;;;;;4.07;3.40;;;27.10;63.30;;;;;;5050530;28;20025;-64
2021/06/19 06:15:51;;;;;;;5.32;3.63;;;27.10;63.60;;;;;;5051235;28;20036;-64
2021/06/19 06:18:17;;;;;;;5.28;3.65;;;27.00;63.70;;;;;;5047749;28;20109;-64
2021/06/19 06:20:42;;;;;;;5.30;3.50;;;27.00;63.60;;;;;;5052296;28;20040;-64
2021/06/19 06:23:08;;;;;;;5.45;3.80;;;27.00;63.70;;;;;;5051759;28;20045;-64
2021/06/19 06:25:34;;;;;;;6.40;3.90;;;26.90;64.10;;;;;;5052107;28;20787;-65
2021/06/19 06:27:59;;;;;;;6.45;3.85;;;26.90;64.20;;;;;;5051125;28;20021;-65
2021/06/19 06:30:25;;;;;;;4.93;3.95;;;26.90;64.50;;;;;;5045001;28;20539;-65
2021/06/19 06:32:51;;;;;;;5.68;3.80;;;26.90;64.90;;;;;;5051638;28;20473;-64
2021/06/19 06:35:17;;;;;;;5.63;3.42;;;26.90;64.80;;;;;;5043845;28;20037;-64
2021/06/19 06:37:43;;;;;;;4.55;3.60;;;26.90;65.10;;;;;;5054110;28;20033;-64
2021/06/19 06:40:11;;;;;;;6.15;3.60;;;26.80;64.90;;;;;;5051198;28;20534;-65
2021/06/19 06:42:40;;;;;;;5.57;3.70;;;26.90;64.80;;;;;;5052874;28;20104;-64
2021/06/19 06:45:08;;;;;;;6.63;4.10;;;26.90;64.80;;;;;;5050230;28;20052;-64
2021/06/19 06:47:34;;;;;;;6.40;4.07;;;26.90;65.00;;;;;;5051234;28;20195;-65
2021/06/19 06:50:00;;;;;;;5.35;4.18;;;26.90;65.10;;;;;;5049673;28;20063;-64
2021/06/19 06:52:26;;;;;;;4.22;3.83;;;26.90;65.10;;;;;;5040094;28;20029;-64
2021/06/19 06:54:51;;;;;;;5.07;3.83;;;26.90;65.30;;;;;;5052378;28;20036;-64
2021/06/19 06:57:17;;;;;;;6.88;3.75;;;26.80;65.20;;;;;;5049042;28;20029;-64
2021/06/19 06:59:43;;;;;;;4.30;3.90;;;26.80;65.40;;;;;;5051301;28;20021;-65
2021/06/19 07:02:09;;;;;;;4.72;3.78;;;26.80;65.60;;;;;;5055673;28;20051;-64
2021/06/19 07:04:34;;;;;;;5.85;3.95;;;26.80;65.40;;;;;;5052767;28;20021;-64
2021/06/19 07:07:00;;;;;;;4.45;3.63;;;26.80;65.50;;;;;;5051704;28;20104;-64
2021/06/19 07:09:27;;;;;;;4.53;3.70;;;26.80;65.90;;;;;;5043986;28;20029;-64
2021/06/19 07:11:52;;;;;;;4.90;3.85;;;26.90;65.80;;;;;;5052303;28;20526;-64
2021/06/19 07:14:18;;;;;;;4.18;3.78;;;26.90;65.50;;;;;;5049397;28;20029;-64
2021/06/19 07:16:44;;;;;;;4.88;4.00;;;26.90;65.40;;;;;;5054157;28;20064;-65
2021/06/19 07:19:09;;;;;;;4.15;3.55;;;26.90;65.20;;;;;;5053764;28;20049;-64
2021/06/19 07:21:35;;;;;;;4.03;3.60;;;27.00;65.10;;;;;;5055643;28;20041;-65
2021/06/19 07:24:01;;;;;;;3.95;3.45;;;27.00;65.20;;;;;;5054758;28;20040;-65
2021/06/19 07:26:26;;;;;;;6.97;3.40;;;27.00;65.20;;;;;;5057552;28;20392;-64
2021/06/19 07:28:52;;;;;;;3.80;3.40;;;27.00;65.80;;;;;;5057736;28;20033;-65
2021/06/19 07:31:18;;;;;;;4.65;3.53;;;27.00;65.30;;;;;;5050005;28;20480;-65
2021/06/19 07:33:43;;;;;;;4.43;3.85;;;27.00;65.30;;;;;;5048722;28;20385;-64
2021/06/19 07:36:10;;;;;;;4.57;3.40;;;27.00;65.50;;;;;;5059426;28;20035;-65
2021/06/19 07:38:35;;;;;;;4.88;3.60;;;27.00;65.20;;;;;;5055070;28;20032;-64
2021/06/19 07:41:01;;;;;;;3.65;3.33;;;27.00;65.40;;;;;;5053661;28;20029;-65
2021/06/19 07:43:27;;;;;;;3.83;3.30;;;27.00;65.40;;;;;;5055697;28;20029;-64
2021/06/19 07:45:53;;;;;;;7.70;3.63;;;27.00;65.70;;;;;;5055022;28;20070;-65
2021/06/19 07:48:19;;;;;;;5.65;3.53;;;27.10;65.30;;;;;;5053145;28;20028;-65
2021/06/19 07:50:45;;;;;;;6.32;3.75;;;27.00;65.30;;;;;;5042073;28;20361;-64
2021/06/19 07:53:11;;;;;;;5.20;4.28;;;27.00;65.40;;;;;;5050623;28;20044;-65
2021/06/19 07:55:38;;;;;;;4.28;3.83;;;27.00;65.50;;;;;;5050075;28;20033;-65
2021/06/19 07:58:04;;;;;;;5.63;3.95;;;27.00;65.70;;;;;;5048540;28;20024;-65
2021/06/19 08:00:31;;;;;;;4.25;3.75;;;27.00;65.70;;;;;;5044822;28;20396;-65
2021/06/19 08:02:57;;;;;;;4.78;3.78;;;26.90;66.40;;;;;;5049965;28;20029;-65
2021/06/19 08:05:24;;;;;;;5.45;3.85;;;26.90;66.40;;;;;;5053409;28;20036;-64
2021/06/19 08:07:49;;;;;;;4.60;3.88;;;26.80;66.50;;;;;;5052564;28;20036;-65
2021/06/19 08:10:15;;;;;;;5.40;3.97;;;26.80;66.60;;;;;;5052498;28;20029;-65
2021/06/19 08:12:41;;;;;;;4.45;4.05;;;26.80;66.80;;;;;;5054279;28;20029;-65
2021/06/19 08:15:08;;;;;;;4.88;3.65;;;26.80;67.10;;;;;;5054034;28;20033;-65
2021/06/19 08:17:33;;;;;;;5.60;3.70;;;26.80;67.70;;;;;;5047380;28;20773;-65
2021/06/19 08:19:59;;;;;;;6.55;4.00;;;26.80;67.70;;;;;;5052159;28;20116;-65
2021/06/19 08:22:25;;;;;;;6.78;4.40;;;26.80;68.30;;;;;;5054758;28;20116;-65
2021/06/19 08:24:51;;;;;;;7.13;5.15;;;26.80;67.90;;;;;;5049256;28;20076;-65
2021/06/19 08:27:22;;;;;;;6.40;4.80;;;26.80;67.50;;;;;;5053355;28;20052;-65
2021/06/19 08:29:49;;;;;;;5.40;4.80;;;26.90;67.50;;;;;;5054779;28;20040;-64
2021/06/19 08:32:16;;;;;;;6.28;4.50;;;26.90;67.10;;;;;;5044851;28;20032;-65
2021/06/19 08:34:41;;;;;;;6.13;4.45;;;26.90;67.70;;;;;;5036263;28;20447;-64
2021/06/19 08:37:07;;;;;;;5.40;4.47;;;26.90;67.70;;;;;;5050850;28;20121;-64
2021/06/19 08:39:33;;;;;;;5.40;4.47;;;26.90;67.90;;;;;;5052520;28;20044;-64
2021/06/19 08:42:00;;;;;;;6.28;4.35;;;26.90;67.90;;;;;;5045452;28;20032;-65
2021/06/19 08:44:27;;;;;;;7.10;5.47;;;26.90;67.70;;;;;;5050443;28;20029;-65
2021/06/19 08:46:55;;;;;;;5.97;5.38;;;26.90;67.60;;;;;;5037943;28;20021;-65
2021/06/19 08:49:23;;;;;;;6.57;5.40;;;26.80;67.60;;;;;;5051554;28;20040;-65
2021/06/19 08:51:52;;;;;;;5.55;4.95;;;26.80;67.90;;;;;;5048109;28;20029;-65
2021/06/19 08:54:18;;;;;;;5.80;4.47;;;26.70;67.80;;;;;;5053215;28;20115;-65
2021/06/19 08:56:44;;;;;;;5.55;4.25;;;26.70;68.00;;;;;;5052380;28;20511;-65
2021/06/19 08:59:10;;;;;;;6.38;5.43;;;26.60;68.10;;;;;;5052298;28;20053;-65
2021/06/19 09:01:38;;;;;;;6.97;4.95;;;26.50;68.20;;;;;;5053030;28;20100;-65
2021/06/19 09:04:05;;;;;;;7.28;5.28;;;26.60;68.30;;;;;;5054192;28;20420;-65
2021/06/19 09:06:32;;;;;;;6.88;5.15;;;26.50;68.20;;;;;;5054095;28;20372;-65
2021/06/19 09:09:15;;;;;;;8.18;4.82;;;26.50;68.40;;;;;;5045997;28;20021;-65
2021/06/19 09:11:46;;;;;;;5.80;4.68;;;26.50;68.60;;;;;;5062073;28;20051;-65
2021/06/19 09:14:14;;;;;;;6.85;4.82;;;26.40;69.00;;;;;;5048845;28;20061;-65
2021/06/19 09:16:42;;;;;;;6.63;4.47;;;26.50;69.60;;;;;;5051306;28;20167;-65
2021/06/19 09:19:34;;;;;;;5.20;4.63;;;26.50;69.60;;;;;;5049239;28;20099;-65
2021/06/19 09:22:09;;;;;;;4.82;4.35;;;26.30;70.20;;;;;;5052330;28;20036;-65
2021/06/19 09:24:41;;;;;;;6.35;4.97;;;26.20;70.40;;;;;;5050129;28;20381;-65
2021/06/19 09:27:46;;;;;;;6.25;5.65;;;26.20;70.70;;;;;;5052442;28;20122;-65
2021/06/19 09:30:21;;;;;;;5.93;5.28;;;26.10;70.80;;;;;;5049022;28;20028;-65
2021/06/19 09:32:48;;;;;;;9.52;5.65;;;26.10;70.60;;;;;;5042338;28;20021;-65
2021/06/19 09:35:15;;;;;;;6.55;5.57;;;26.10;70.50;;;;;;5049222;28;20461;-65
2021/06/19 09:37:43;;;;;;;8.80;5.63;;;26.20;70.60;;;;;;5054160;28;20108;-65
2021/06/19 09:40:27;;;;;;;6.22;5.25;;;26.20;70.80;;;;;;5061795;28;20036;-65
2021/06/19 09:43:03;;;;;;;6.50;5.53;;;26.20;71.10;;;;;;5038874;28;20030;-65
2021/06/19 09:45:29;;;;;;;7.15;5.65;;;26.20;71.90;;;;;;5053228;28;20369;-65
2021/06/19 09:47:55;;;;;;;8.13;4.88;;;26.20;71.50;;;;;;5045732;28;20018;-65
2021/06/19 09:50:21;;;;;;;7.03;5.40;;;26.30;72.20;;;;;;5050478;28;20035;-65
2021/06/19 09:52:47;;;;;;;6.25;5.30;;;26.40;71.10;;;;;;5053062;28;20024;-65
2021/06/19 09:55:15;;;;;;;7.47;5.35;;;26.50;70.80;;;;;;5053573;28;20116;-66
2021/06/19 09:57:43;;;;;;;5.90;4.05;;;26.50;70.80;;;;;;5051014;28;20033;-65
2021/06/19 10:00:11;;;;;;;8.38;4.20;;;26.60;69.90;;;;;;5052495;28;20766;-65
2021/06/19 10:02:38;;;;;;;6.35;3.22;;;26.60;69.40;;;;;;5047480;28;20025;-65
2021/06/19 10:05:04;;;;;;;5.30;3.08;;;26.60;68.80;;;;;;5048849;28;20063;-65
2021/06/19 10:07:34;;;;;;;5.50;3.00;;;26.60;68.30;;;;;;5051743;28;20036;-65
2021/06/19 10:10:02;;;;;;;7.35;3.63;;;26.70;68.00;;;;;;5050673;28;20136;-65
2021/06/19 10:12:30;;;;;;;7.43;3.15;;;26.70;67.80;;;;;;5053644;28;20025;-65
2021/06/19 10:15:12;;;;;;;6.97;3.25;;;26.70;67.60;;;;;;5063963;28;20468;-65
2021/06/19 10:17:40;;;;;;;5.25;2.97;;;26.80;67.90;;;;;;5047415;28;20043;-65
2021/06/19 10:20:08;;;;;;;3.47;2.97;;;26.90;68.30;;;;;;5049308;28;20116;-66
2021/06/19 10:22:35;;;;;;;6.00;2.85;;;27.00;67.70;;;;;;5052058;28;20037;-65
2021/06/19 10:25:06;;;;;;;4.90;2.97;;;27.00;67.20;;;;;;5048670;28;20029;-65
2021/06/19 10:27:33;;;;;;;4.78;2.72;;;27.00;67.40;;;;;;5048147;28;20025;-65
2021/06/19 10:30:01;;;;;;;5.22;3.00;;;27.00;67.00;;;;;;5043349;28;20029;-65
2021/06/19 10:32:46;;;;;;;4.53;3.15;;;27.00;66.90;;;;;;5045980;28;20120;-65
2021/06/19 10:35:17;;;;;;;5.75;3.20;;;27.00;67.20;;;;;;5060295;28;20029;-66
2021/06/19 10:37:44;;;;;;;4.50;3.15;;;27.10;67.00;;;;;;5051837;28;20119;-65
2021/06/19 10:40:16;;;;;;;7.43;3.03;;;27.10;67.10;;;;;;5049691;28;20473;-65
2021/06/19 10:42:42;;;;;;;4.93;3.05;;;27.20;67.00;;;;;;5047968;28;20465;-65
2021/06/19 10:45:24;;;;;;;4.45;3.20;;;27.20;67.10;;;;;;5046127;28;20028;-65
2021/06/19 10:48:07;;;;;;;3.83;2.67;;;27.30;67.10;;;;;;5045461;28;20075;-66
2021/06/19 10:50:35;;;;;;;4.03;2.58;;;27.30;66.90;;;;;;5046230;28;20100;-65
2021/06/19 10:53:13;;;;;;;3.83;2.40;;;27.30;65.60;;;;;;5056152;28;20044;-65
2021/06/19 10:55:44;;;;;;;7.03;3.25;;;27.40;65.00;;;;;;5038630;28;20037;-65
2021/06/19 10:58:39;;;;;;;5.07;2.83;;;27.40;65.10;;;;;;5045360;28;20509;-66
2021/06/19 11:01:06;;;;;;;4.95;2.72;;;27.40;64.60;;;;;;5037331;28;20041;-65
2021/06/19 11:04:00;;;;;;;3.45;2.55;;;27.40;64.70;;;;;;5049881;28;20417;-65
2021/06/19 11:06:27;;;;;;;4.55;3.15;;;27.40;65.00;;;;;;5044252;28;20044;-65
2021/06/19 11:09:20;;;;;;;5.82;3.13;;;27.40;64.90;;;;;;5052773;28;20488;-66
2021/06/19 11:11:55;;;;;;;6.28;3.33;;;27.40;65.10;;;;;;5046522;28;20071;-65
2021/06/19 11:14:40;;;;;;;4.15;3.25;;;27.40;65.10;;;;;;5050055;28;20524;-65
2021/06/19 11:17:26;;;;;;;6.30;3.65;;;27.50;64.90;;;;;;5054484;28;20155;-66
2021/06/19 11:19:59;;;;;;;5.68;2.90;;;27.50;65.10;;;;;;5053429;28;20036;-65
2021/06/19 11:22:38;;;;;;;3.90;3.28;;;27.50;64.60;;;;;;5055131;28;20033;-65
2021/06/19 11:25:19;;;;;;;6.10;3.65;;;27.50;64.90;;;;;;5049336;28;20067;-65
2021/06/19 11:27:57;;;;;;;7.85;4.18;;;27.60;64.80;;;;;;5055674;28;20017;-65
2021/06/19 11:30:38;;;;;;;4.68;3.53;;;27.60;64.90;;;;;;5053596;28;20356;-65
2021/06/19 11:33:16;;;;;;;7.50;3.65;;;27.60;64.70;;;;;;5055014;28;20032;-65
2021/06/19 11:35:45;;;;;;;3.78;3.00;;;27.60;64.60;;;;;;5050549;28;20032;-65
2021/06/19 11:38:12;;;;;;;3.75;2.97;;;27.60;64.60;;;;;;5054870;28;20036;-65
2021/06/19 11:40:38;;;;;;;4.75;2.97;;;27.60;64.80;;;;;;5051601;28;20111;-66
2021/06/19 11:43:06;;;;;;;4.30;2.65;;;27.60;64.30;;;;;;5054660;28;20077;-65
2021/06/19 11:45:32;;;;;;;3.47;2.67;;;27.60;63.50;;;;;;5054974;28;20032;-65
2021/06/19 11:48:01;;;;;;;3.20;2.60;;;27.70;63.30;;;;;;5054832;28;20013;-65
2021/06/19 11:50:31;;;;;;;7.03;2.55;;;27.70;63.00;;;;;;5054236;28;20536;-65
2021/06/19 11:53:16;;;;;;;4.55;2.53;;;27.70;63.10;;;;;;5055523;28;20029;-65
2021/06/19 11:55:42;;;;;;;4.32;2.45;;;27.70;63.40;;;;;;5040177;28;20485;-65
2021/06/19 11:58:08;;;;;;;6.13;2.53;;;27.70;63.10;;;;;;5047076;28;20112;-65
2021/06/19 12:00:54;;;;;;;5.35;2.40;;;27.70;63.40;;;;;;5046552;28;20424;-65
2021/06/19 12:03:22;;;;;;;4.10;2.35;;;27.70;64.20;;;;;;5049742;28;20443;-65
2021/06/19 12:05:48;;;;;;;4.78;2.67;;;27.70;64.20;;;;;;5054856;28;20377;-65
2021/06/19 12:08:14;;;;;;;3.50;2.53;;;27.70;64.60;;;;;;5054389;28;20072;-65
2021/06/19 12:10:40;;;;;;;4.07;2.90;;;27.60;64.00;;;;;;5050275;28;20071;-65
2021/06/19 12:13:09;;;;;;;7.05;2.35;;;27.50;63.90;;;;;;5054527;28;20369;-65
2021/06/19 12:15:35;;;;;;;2.58;2.10;;;27.40;63.30;;;;;;5049673;28;20516;-65
2021/06/19 12:18:04;;;;;;;3.20;2.20;;;27.30;63.70;;;;;;5056540;28;20056;-65
2021/06/19 12:20:30;;;;;;;3.83;2.75;;;27.20;63.90;;;;;;5051559;28;20256;-65
2021/06/19 12:22:56;;;;;;;4.32;2.30;;;27.10;63.10;;;;;;5057438;28;20036;-65
2021/06/19 12:25:33;;;;;;;4.47;2.22;;;27.00;62.90;;;;;;5054595;28;20385;-66
2021/06/19 12:28:00;;;;;;;4.53;2.55;;;26.80;63.50;;;;;;5053806;28;20091;-65
2021/06/19 12:30:26;;;;;;;4.90;3.28;;;26.70;64.00;;;;;;5052087;28;20053;-65
2021/06/19 12:32:52;;;;;;;3.28;2.70;;;26.60;64.40;;;;;;5034710;28;20040;-65
2021/06/19 12:35:19;;;;;;;5.20;2.80;;;26.50;63.90;;;;;;5052611;28;20029;-65
2021/06/19 12:38:00;;;;;;;4.13;2.47;;;26.50;64.10;;;;;;5054108;28;20100;-65
2021/06/19 12:40:34;;;;;;;4.90;2.58;;;26.40;64.30;;;;;;5053818;28;20342;-65
2021/06/19 12:42:59;;;;;;;3.63;2.65;;;26.50;64.10;;;;;;5053071;28;20025;-65
2021/06/19 12:45:52;;;;;;;5.40;2.90;;;26.50;64.10;;;;;;5069256;28;20017;-65
2021/06/19 12:48:24;;;;;;;2.50;2.20;;;26.50;63.90;;;;;;5045999;28;20029;-65
2021/06/19 12:50:52;;;;;;;3.25;2.53;;;26.50;63.90;;;;;;5051549;28;20033;-65
2021/06/19 12:53:24;;;;;;;4.25;2.30;;;26.50;64.10;;;;;;5052171;28;20033;-65
2021/06/19 12:55:56;;;;;;;4.30;2.75;;;26.60;64.20;;;;;;5054459;28;20027;-65